Time;durP1;ratioP1;P1;durP2;ratioP2;P2;SDS_P1;SDS_P2;PMS_P1;PMS_P2;Temp;Humidity;BMP_temperature;BMP_pressure;BME280_temperature;BME280_humidity;BME280_pressure;Samples;Min_cycle;Max_cycle;Signal;HPM_P1;HPM_P2
2021/03/12 00:02:03;;;;;;;5.32;1.42;;;5.60;99.90;;;;;;5071204;28;20029;-57
2021/03/12 00:04:28;;;;;;;4.95;1.48;;;5.70;99.90;;;;;;5071413;28;20027;-61
2021/03/12 00:06:54;;;;;;;4.25;1.40;;;5.90;99.90;;;;;;5071136;28;20017;-60
2021/03/12 00:09:20;;;;;;;7.38;1.70;;;6.00;99.90;;;;;;5071261;28;20025;-61
2021/03/12 00:11:45;;;;;;;3.13;1.52;;;6.10;99.90;;;;;;5070420;28;20028;-61
2021/03/12 00:14:11;;;;;;;7.63;1.50;;;6.20;99.90;;;;;;5071072;28;20032;-61
2021/03/12 00:16:37;;;;;;;6.65;1.85;;;6.20;99.90;;;;;;5070918;28;20111;-61
2021/03/12 00:19:03;;;;;;;3.15;1.40;;;6.20;99.90;;;;;;5071030;28;20040;-60
2021/03/12 00:21:28;;;;;;;4.30;1.58;;;6.20;99.90;;;;;;5070629;28;20471;-61
2021/03/12 00:23:55;;;;;;;3.05;1.60;;;6.20;99.90;;;;;;5091300;28;20064;-61
2021/03/12 00:26:20;;;;;;;5.05;1.45;;;6.20;99.90;;;;;;5090287;28;20099;-60
2021/03/12 00:28:46;;;;;;;2.40;1.30;;;6.20;99.90;;;;;;5091073;28;20092;-61
2021/03/12 00:31:12;;;;;;;3.60;1.20;;;6.30;99.90;;;;;;5090642;28;20069;-61
2021/03/12 00:33:38;;;;;;;6.88;1.58;;;6.40;99.90;;;;;;5091007;28;20098;-60
2021/03/12 00:36:05;;;;;;;4.25;1.75;;;6.40;99.90;;;;;;5090972;28;20032;-61
2021/03/12 00:38:30;;;;;;;7.38;2.10;;;6.50;99.90;;;;;;5091218;28;20028;-60
2021/03/12 00:40:59;;;;;;;3.70;1.55;;;6.50;99.90;;;;;;5090774;28;20127;-61
2021/03/12 00:43:25;;;;;;;4.80;1.65;;;6.60;99.90;;;;;;5090409;28;20463;-63
2021/03/12 00:45:54;;;;;;;4.28;1.70;;;6.60;99.90;;;;;;5090816;28;20548;-61
2021/03/12 00:48:20;;;;;;;4.53;1.70;;;6.60;99.90;;;;;;5090918;28;20425;-61
2021/03/12 00:50:46;;;;;;;5.95;1.50;;;6.60;99.90;;;;;;5085122;28;20099;-61
2021/03/12 00:53:11;;;;;;;3.88;1.60;;;6.60;99.90;;;;;;5070540;28;20035;-59
2021/03/12 00:55:37;;;;;;;5.50;1.98;;;6.60;99.90;;;;;;5069305;28;20052;-60
2021/03/12 00:58:05;;;;;;;5.80;1.52;;;6.60;99.90;;;;;;5069557;28;20028;-61
2021/03/12 01:00:32;;;;;;;3.70;1.67;;;6.50;99.90;;;;;;5070651;28;20033;-61
2021/03/12 01:02:58;;;;;;;6.05;1.95;;;6.50;99.90;;;;;;5075752;28;20020;-60
2021/03/12 01:05:25;;;;;;;3.03;1.60;;;6.50;99.90;;;;;;5077420;28;20187;-61
2021/03/12 01:07:51;;;;;;;5.40;1.58;;;6.60;99.90;;;;;;5077244;28;20028;-61
2021/03/12 01:10:18;;;;;;;3.55;1.50;;;6.60;99.90;;;;;;5076358;28;20024;-61
2021/03/12 01:12:44;;;;;;;6.03;1.83;;;6.60;99.90;;;;;;5076948;28;20033;-61
2021/03/12 01:15:13;;;;;;;5.88;1.88;;;6.50;99.90;;;;;;5078123;28;20020;-57
2021/03/12 01:17:38;;;;;;;7.57;1.77;;;6.40;99.90;;;;;;5077825;28;20074;-61
2021/03/12 01:20:07;;;;;;;3.60;1.67;;;6.20;99.90;;;;;;5072696;28;20325;-61
2021/03/12 01:22:33;;;;;;;3.13;1.83;;;6.10;99.90;;;;;;5093058;28;20032;-61
2021/03/12 01:25:00;;;;;;;3.83;1.45;;;6.10;99.90;;;;;;5098228;28;20032;-61
2021/03/12 01:27:26;;;;;;;5.05;1.75;;;6.00;99.90;;;;;;5097027;28;20065;-61
2021/03/12 01:29:52;;;;;;;4.50;1.42;;;6.00;99.90;;;;;;5097014;28;20028;-59
2021/03/12 01:32:18;;;;;;;4.85;1.58;;;5.90;99.90;;;;;;5097571;28;20364;-59
2021/03/12 01:34:43;;;;;;;4.55;1.38;;;5.90;99.90;;;;;;5098148;28;20076;-61
2021/03/12 01:37:09;;;;;;;4.57;1.85;;;5.90;99.90;;;;;;5095496;28;20104;-60
2021/03/12 01:39:34;;;;;;;2.83;1.33;;;5.90;99.90;;;;;;5078545;28;20036;-61
2021/03/12 01:42:00;;;;;;;4.80;1.92;;;5.90;99.90;;;;;;5077532;28;20067;-60
2021/03/12 01:44:27;;;;;;;3.63;1.55;;;5.90;99.90;;;;;;5078691;28;20025;-61
2021/03/12 01:46:53;;;;;;;5.45;1.92;;;5.80;99.90;;;;;;5078518;28;20016;-61
2021/03/12 01:49:18;;;;;;;4.95;1.30;;;5.80;99.90;;;;;;5078637;28;20028;-61
2021/03/12 01:51:44;;;;;;;3.97;1.50;;;5.80;99.90;;;;;;5078437;28;20471;-61
2021/03/12 01:54:10;;;;;;;2.35;1.30;;;5.80;99.90;;;;;;5078489;28;20051;-58
2021/03/12 01:56:35;;;;;;;5.35;1.77;;;5.80;99.90;;;;;;5077404;28;20031;-60
2021/03/12 01:59:01;;;;;;;2.08;1.40;;;5.90;99.90;;;;;;5078504;28;20025;-61
2021/03/12 02:01:26;;;;;;;3.25;1.55;;;5.90;99.90;;;;;;5078362;28;20060;-61
2021/03/12 02:03:52;;;;;;;3.20;1.30;;;6.00;99.90;;;;;;5078512;28;20062;-58
2021/03/12 02:06:17;;;;;;;4.78;1.30;;;6.00;99.90;;;;;;5078435;28;20025;-61
2021/03/12 02:08:43;;;;;;;6.07;1.55;;;6.10;99.90;;;;;;5078574;28;20028;-59
2021/03/12 02:11:09;;;;;;;2.45;1.48;;;6.20;99.90;;;;;;5077853;28;20032;-61
2021/03/12 02:13:58;;;;;;;2.58;1.30;;;6.30;99.90;;;;;;5075703;28;20020;-61
2021/03/12 02:16:40;;;;;;;1.92;1.23;;;6.30;99.90;;;;;;5075067;28;20041;-60
2021/03/12 02:19:40;;;;;;;1.98;1.10;;;6.40;99.90;;;;;;5074989;28;20052;-59
2021/03/12 02:22:07;;;;;;;3.05;1.20;;;6.50;99.90;;;;;;5074984;28;20464;-60
2021/03/12 02:24:38;;;;;;;1.85;1.10;;;6.50;99.90;;;;;;5075086;28;20031;-60
2021/03/12 02:27:18;;;;;;;3.15;0.90;;;6.50;99.90;;;;;;5073990;28;20120;-60
2021/03/12 02:29:47;;;;;;;0.80;0.80;;;6.50;99.90;;;;;;5075110;28;20036;-60
2021/03/12 02:32:16;;;;;;;5.88;1.65;;;6.60;99.90;;;;;;5074548;28;20116;-59
2021/03/12 02:34:45;;;;;;;1.35;1.00;;;6.60;99.90;;;;;;5074831;28;20027;-60
2021/03/12 02:37:13;;;;;;;5.15;1.63;;;6.60;99.90;;;;;;5074780;28;20031;-61
2021/03/12 02:39:45;;;;;;;2.40;1.13;;;6.60;99.90;;;;;;5074685;28;20043;-63
2021/03/12 02:42:14;;;;;;;4.32;1.50;;;6.50;99.90;;;;;;5073708;28;20135;-61
2021/03/12 02:44:40;;;;;;;1.88;1.30;;;6.50;99.90;;;;;;5074634;28;20017;-60
2021/03/12 02:47:29;;;;;;;5.47;1.50;;;6.50;99.90;;;;;;5074535;28;20024;-61
2021/03/12 02:49:55;;;;;;;1.58;1.20;;;6.40;99.90;;;;;;5074605;28;20021;-57
2021/03/12 02:52:23;;;;;;;2.78;1.23;;;6.30;99.90;;;;;;5062131;28;20070;-60
2021/03/12 02:54:49;;;;;;;2.78;1.50;;;6.20;99.90;;;;;;5060239;28;20093;-60
2021/03/12 02:57:19;;;;;;;4.63;1.30;;;6.20;99.90;;;;;;5072220;28;20134;-60
2021/03/12 02:59:46;;;;;;;5.35;1.60;;;6.10;99.90;;;;;;5074311;28;20040;-61
2021/03/12 03:02:13;;;;;;;3.72;1.10;;;6.00;99.90;;;;;;5073585;28;20017;-59
2021/03/12 03:04:40;;;;;;;3.38;1.17;;;5.90;99.90;;;;;;5073693;28;20020;-59
2021/03/12 03:07:08;;;;;;;1.55;1.00;;;5.70;99.90;;;;;;5073636;28;20468;-61
2021/03/12 03:09:36;;;;;;;3.75;0.98;;;5.60;99.90;;;;;;5073636;28;20101;-60
2021/03/12 03:12:02;;;;;;;2.50;1.10;;;5.50;99.90;;;;;;5072668;28;20025;-61
2021/03/12 03:14:30;;;;;;;3.22;1.00;;;5.40;99.90;;;;;;5073643;28;20178;-60
2021/03/12 03:16:57;;;;;;;3.20;1.40;;;5.20;99.90;;;;;;5073496;28;20032;-61
2021/03/12 03:19:23;;;;;;;0.93;0.70;;;5.20;99.90;;;;;;5073343;28;20035;-60
2021/03/12 03:21:49;;;;;;;2.35;1.00;;;5.00;99.90;;;;;;5073355;28;20100;-59
2021/03/12 03:24:15;;;;;;;1.13;1.02;;;5.00;99.90;;;;;;5073101;28;20139;-60
2021/03/12 03:26:41;;;;;;;1.10;1.00;;;4.90;99.90;;;;;;5071590;28;20429;-60
2021/03/12 03:29:06;;;;;;;1.10;0.80;;;4.80;99.90;;;;;;5073456;28;20047;-60
2021/03/12 03:31:33;;;;;;;2.55;0.88;;;4.90;99.90;;;;;;5073375;28;20029;-57
2021/03/12 03:33:58;;;;;;;2.58;1.20;;;4.80;99.90;;;;;;5073096;28;20386;-61
2021/03/12 03:36:25;;;;;;;3.28;1.05;;;4.70;99.90;;;;;;5073211;28;20025;-60
2021/03/12 03:38:50;;;;;;;1.55;0.82;;;4.70;99.90;;;;;;5073074;28;20055;-60
2021/03/12 03:41:18;;;;;;;1.50;1.17;;;4.70;99.90;;;;;;5072102;28;20056;-60
2021/03/12 03:43:48;;;;;;;1.95;0.90;;;4.60;99.90;;;;;;5072992;28;20039;-61
2021/03/12 03:46:15;;;;;;;2.35;1.00;;;4.60;99.90;;;;;;5072880;28;20100;-60
2021/03/12 03:48:41;;;;;;;2.47;1.38;;;4.70;99.90;;;;;;5073059;28;20417;-60
2021/03/12 03:51:08;;;;;;;1.33;0.90;;;4.80;99.90;;;;;;5072770;28;20077;-60
2021/03/12 03:53:35;;;;;;;1.95;1.15;;;4.80;99.90;;;;;;5072500;28;20024;-54
2021/03/12 03:56:03;;;;;;;3.80;1.20;;;4.80;99.90;;;;;;5072780;28;20103;-59
2021/03/12 03:58:30;;;;;;;3.33;1.23;;;4.80;99.90;;;;;;5071969;28;20028;-60
2021/03/12 04:00:57;;;;;;;3.03;1.17;;;4.80;99.90;;;;;;5073351;28;20054;-60
2021/03/12 04:03:23;;;;;;;2.72;0.90;;;4.80;99.90;;;;;;5073208;28;20024;-61
2021/03/12 04:05:50;;;;;;;2.20;1.00;;;4.80;99.90;;;;;;5073196;28;20020;-60
2021/03/12 04:08:16;;;;;;;4.85;1.23;;;4.80;99.90;;;;;;5073191;28;20069;-60
2021/03/12 04:10:42;;;;;;;6.15;1.10;;;4.80;99.90;;;;;;5073300;28;20477;-59
2021/03/12 04:13:08;;;;;;;3.17;1.10;;;4.80;99.90;;;;;;5072113;28;20074;-60
2021/03/12 04:15:34;;;;;;;1.15;0.80;;;4.80;99.90;;;;;;5073197;28;20024;-60
2021/03/12 04:18:00;;;;;;;3.28;0.85;;;4.80;99.90;;;;;;5072961;28;20031;-58
2021/03/12 04:20:27;;;;;;;1.30;0.82;;;4.80;99.90;;;;;;5072777;28;20024;-59
2021/03/12 04:22:53;;;;;;;2.97;0.77;;;4.80;99.90;;;;;;5072946;28;20048;-60
2021/03/12 04:25:19;;;;;;;3.17;0.70;;;4.80;99.90;;;;;;5073058;28;20474;-57
2021/03/12 04:27:45;;;;;;;1.13;0.80;;;4.80;99.90;;;;;;5072251;28;20418;-60
2021/03/12 04:30:12;;;;;;;3.28;1.02;;;4.80;99.90;;;;;;5073038;28;20025;-60
2021/03/12 04:32:39;;;;;;;2.85;0.90;;;4.80;99.90;;;;;;5071751;28;20442;-59
2021/03/12 04:35:06;;;;;;;1.00;0.90;;;4.90;99.90;;;;;;5072783;28;20115;-61
2021/03/12 04:37:32;;;;;;;4.82;1.88;;;4.90;99.90;;;;;;5072157;28;20492;-60
2021/03/12 04:39:58;;;;;;;2.95;1.25;;;4.90;99.90;;;;;;5072813;28;20060;-57
2021/03/12 04:42:24;;;;;;;2.60;0.90;;;4.90;99.90;;;;;;5071746;28;20031;-60
2021/03/12 04:44:50;;;;;;;2.40;0.98;;;4.90;99.90;;;;;;5072871;28;20033;-57
2021/03/12 04:47:16;;;;;;;2.40;1.30;;;4.90;99.90;;;;;;5072658;28;20043;-59
2021/03/12 04:49:45;;;;;;;3.05;0.82;;;4.90;99.90;;;;;;5072486;28;20422;-60
2021/03/12 04:52:14;;;;;;;4.30;0.90;;;4.90;99.90;;;;;;5072546;28;20035;-56
2021/03/12 04:54:41;;;;;;;2.22;0.70;;;4.90;99.90;;;;;;5072410;28;20048;-56
2021/03/12 04:57:06;;;;;;;3.80;1.10;;;4.90;99.90;;;;;;5071417;28;20024;-60
2021/03/12 04:59:33;;;;;;;2.05;0.80;;;4.90;99.90;;;;;;5072291;28;20081;-59
2021/03/12 05:01:59;;;;;;;2.65;1.10;;;4.90;99.90;;;;;;5072577;28;20028;-60
2021/03/12 05:04:25;;;;;;;4.28;1.23;;;5.00;99.90;;;;;;5067914;28;20436;-61
2021/03/12 05:06:51;;;;;;;2.55;1.10;;;5.00;99.90;;;;;;5071500;28;20111;-59
2021/03/12 05:09:17;;;;;;;4.15;1.20;;;5.10;99.90;;;;;;5071982;28;20048;-56
2021/03/12 05:11:43;;;;;;;2.38;1.02;;;5.10;99.90;;;;;;5071148;28;20104;-59
2021/03/12 05:14:13;;;;;;;4.22;1.48;;;5.20;99.90;;;;;;5072231;28;20529;-59
2021/03/12 05:16:39;;;;;;;2.15;0.93;;;5.20;99.90;;;;;;5071696;28;20387;-59
2021/03/12 05:19:04;;;;;;;4.70;1.27;;;5.30;99.90;;;;;;5071978;28;20024;-59
2021/03/12 05:21:31;;;;;;;3.65;1.23;;;5.30;99.90;;;;;;5070663;28;20046;-57
2021/03/12 05:23:58;;;;;;;5.40;0.98;;;5.40;99.90;;;;;;5072214;28;20027;-59
2021/03/12 05:26:23;;;;;;;1.65;0.90;;;5.40;99.90;;;;;;5070872;28;20105;-60
2021/03/12 05:28:49;;;;;;;3.80;1.13;;;5.40;99.90;;;;;;5071756;28;20052;-56
2021/03/12 05:31:14;;;;;;;4.15;1.52;;;5.40;99.90;;;;;;5072300;28;20058;-60
2021/03/12 05:33:40;;;;;;;1.80;1.00;;;5.50;99.90;;;;;;5071798;28;20029;-58
2021/03/12 05:36:06;;;;;;;4.65;1.45;;;5.50;99.90;;;;;;5072266;28;20029;-61
2021/03/12 05:38:31;;;;;;;2.65;1.02;;;5.50;99.90;;;;;;5072241;28;20033;-59
2021/03/12 05:40:57;;;;;;;6.38;2.22;;;5.50;99.90;;;;;;5072126;28;20029;-60
2021/03/12 05:43:23;;;;;;;3.60;1.27;;;5.50;99.90;;;;;;5071070;28;20028;-59
2021/03/12 05:45:51;;;;;;;2.97;1.23;;;5.50;99.90;;;;;;5068659;28;20043;-59
2021/03/12 05:48:18;;;;;;;2.17;1.40;;;5.50;99.90;;;;;;5071814;28;20476;-61
2021/03/12 05:50:43;;;;;;;3.72;1.40;;;5.60;99.90;;;;;;5075305;28;20040;-60
2021/03/12 05:53:09;;;;;;;5.38;1.90;;;5.50;99.90;;;;;;5075338;28;20100;-60
2021/03/12 05:55:35;;;;;;;1.77;1.35;;;5.60;99.90;;;;;;5075392;28;20047;-60
2021/03/12 05:58:00;;;;;;;2.10;1.45;;;5.60;99.90;;;;;;5074395;28;20216;-59
2021/03/12 06:00:26;;;;;;;3.67;1.80;;;5.60;99.90;;;;;;5075516;28;20064;-58
2021/03/12 06:02:52;;;;;;;3.53;1.60;;;5.60;99.90;;;;;;5075472;28;20025;-59
2021/03/12 06:05:17;;;;;;;6.30;1.52;;;5.60;99.90;;;;;;5075556;28;20032;-60
2021/03/12 06:07:43;;;;;;;7.65;2.13;;;5.60;99.90;;;;;;5075454;28;20035;-58
2021/03/12 06:10:09;;;;;;;5.32;1.77;;;5.60;99.90;;;;;;5075415;28;20068;-60
2021/03/12 06:12:35;;;;;;;5.15;2.35;;;5.60;99.90;;;;;;5074508;28;20028;-59
2021/03/12 06:15:05;;;;;;;3.35;2.15;;;5.60;99.90;;;;;;5075365;28;20390;-60
2021/03/12 06:17:46;;;;;;;4.30;2.20;;;5.60;99.90;;;;;;5074029;28;20038;-59
2021/03/12 06:20:19;;;;;;;4.13;2.03;;;5.60;99.90;;;;;;5075355;28;20025;-60
2021/03/12 06:22:52;;;;;;;3.47;2.10;;;5.60;99.90;;;;;;5075276;28;20032;-60
2021/03/12 06:25:22;;;;;;;3.15;2.35;;;5.60;99.90;;;;;;5075137;28;20020;-60
2021/03/12 06:27:52;;;;;;;3.08;2.33;;;5.60;99.90;;;;;;5073810;28;20029;-60
2021/03/12 06:30:19;;;;;;;3.53;2.38;;;5.70;99.90;;;;;;5075122;28;20024;-60
2021/03/12 06:32:50;;;;;;;3.20;2.05;;;5.60;99.90;;;;;;5075034;28;20055;-61
2021/03/12 06:35:24;;;;;;;7.25;2.85;;;5.60;99.90;;;;;;5074989;28;20032;-62
2021/03/12 06:37:51;;;;;;;5.00;2.00;;;5.60;99.90;;;;;;5071680;28;20035;-60
2021/03/12 06:40:25;;;;;;;4.43;2.45;;;5.60;99.90;;;;;;5074091;28;20032;-60
2021/03/12 06:43:11;;;;;;;5.68;2.13;;;5.60;99.90;;;;;;5073305;28;20036;-60
2021/03/12 06:45:52;;;;;;;4.32;2.53;;;5.70;99.90;;;;;;5074702;28;20150;-61
2021/03/12 06:48:31;;;;;;;4.50;2.17;;;5.70;99.90;;;;;;5074651;28;20031;-59
2021/03/12 06:51:10;;;;;;;4.80;2.53;;;5.80;99.90;;;;;;5074567;28;20055;-60
2021/03/12 06:53:39;;;;;;;5.68;3.00;;;5.90;99.90;;;;;;5074321;28;20033;-60
2021/03/12 06:56:06;;;;;;;4.40;1.75;;;6.10;99.90;;;;;;5086656;28;20063;-60
2021/03/12 06:58:33;;;;;;;5.00;2.20;;;6.20;99.90;;;;;;5094402;28;20031;-60
2021/03/12 07:01:00;;;;;;;4.68;2.30;;;6.20;99.90;;;;;;5094266;28;20028;-60
2021/03/12 07:03:34;;;;;;;3.95;2.08;;;6.30;99.90;;;;;;5094569;28;20027;-59
2021/03/12 07:06:05;;;;;;;3.70;2.58;;;6.30;99.90;;;;;;5094665;28;20028;-61
2021/03/12 07:08:45;;;;;;;6.70;2.90;;;6.30;99.90;;;;;;5094477;28;20069;-58
2021/03/12 07:11:19;;;;;;;5.38;2.17;;;6.30;99.90;;;;;;5092989;28;20028;-59
2021/03/12 07:13:47;;;;;;;3.15;2.63;;;6.20;99.90;;;;;;5093115;28;20051;-58
2021/03/12 07:16:12;;;;;;;5.20;2.75;;;6.20;99.90;;;;;;5094469;28;20363;-60
2021/03/12 07:18:38;;;;;;;3.72;2.10;;;6.20;99.90;;;;;;5094243;28;20072;-59
2021/03/12 07:21:05;;;;;;;3.30;2.20;;;6.20;99.90;;;;;;5094383;28;20020;-60
2021/03/12 07:23:36;;;;;;;4.13;2.58;;;6.30;99.90;;;;;;5094292;28;20069;-59
2021/03/12 07:26:02;;;;;;;5.95;3.15;;;6.50;99.90;;;;;;5093231;28;20406;-60
2021/03/12 07:28:29;;;;;;;4.72;2.40;;;6.60;99.90;;;;;;5094020;28;20081;-60
2021/03/12 07:30:56;;;;;;;2.63;2.15;;;6.70;99.90;;;;;;5094089;28;20032;-58
2021/03/12 07:33:26;;;;;;;3.10;2.15;;;6.80;99.90;;;;;;5094214;28;20029;-60
2021/03/12 07:35:54;;;;;;;4.00;2.13;;;6.90;99.90;;;;;;5093999;28;20352;-59
2021/03/12 07:38:22;;;;;;;4.63;2.97;;;6.90;99.90;;;;;;5093881;28;20148;-61
2021/03/12 07:40:48;;;;;;;5.78;2.80;;;7.00;99.90;;;;;;5093498;28;20020;-59
2021/03/12 07:43:14;;;;;;;4.32;2.35;;;7.20;99.90;;;;;;5092678;28;20031;-60
2021/03/12 07:45:42;;;;;;;3.03;2.30;;;7.40;99.90;;;;;;5093859;28;20032;-59
2021/03/12 07:48:08;;;;;;;5.13;2.75;;;7.60;99.90;;;;;;5093758;28;20016;-51
2021/03/12 07:50:37;;;;;;;5.22;3.08;;;7.80;99.90;;;;;;5089554;28;20494;-50
2021/03/12 07:53:03;;;;;;;4.45;2.92;;;7.80;99.90;;;;;;5073414;28;20024;-50
2021/03/12 07:55:35;;;;;;;4.65;2.78;;;7.70;99.90;;;;;;5081412;28;20059;-51
2021/03/12 07:58:08;;;;;;;3.17;2.35;;;7.70;99.90;;;;;;5092365;28;20051;-55
2021/03/12 08:00:52;;;;;;;3.78;2.42;;;7.60;99.90;;;;;;5093526;28;20024;-51
2021/03/12 08:03:44;;;;;;;6.53;2.80;;;7.50;99.90;;;;;;5076192;28;20021;-50
2021/03/12 08:06:18;;;;;;;4.18;2.88;;;7.40;99.90;;;;;;5070237;28;20041;-52
2021/03/12 08:08:45;;;;;;;5.10;2.67;;;7.40;99.90;;;;;;5073048;28;20028;-55
2021/03/12 08:11:33;;;;;;;5.85;3.08;;;7.40;99.90;;;;;;5071059;28;20095;-52
2021/03/12 08:14:18;;;;;;;3.08;2.70;;;7.50;99.90;;;;;;5073289;28;20103;-55
2021/03/12 08:16:56;;;;;;;4.00;2.58;;;7.70;99.90;;;;;;5072950;28;20571;-54
2021/03/12 08:19:39;;;;;;;4.40;2.63;;;7.80;99.90;;;;;;5073004;28;20444;-52
2021/03/12 08:22:26;;;;;;;5.28;3.75;;;7.80;99.90;;;;;;5072713;28;20016;-54
2021/03/12 08:24:52;;;;;;;3.17;2.55;;;7.80;99.90;;;;;;5072874;28;20031;-52
2021/03/12 08:27:45;;;;;;;6.00;3.05;;;7.80;99.90;;;;;;5071275;28;20074;-54
2021/03/12 08:30:34;;;;;;;6.90;2.85;;;7.80;99.90;;;;;;5073059;28;20028;-51
2021/03/12 08:33:25;;;;;;;5.30;2.85;;;7.90;99.90;;;;;;5072439;28;20483;-49
2021/03/12 08:35:51;;;;;;;4.80;2.90;;;7.90;99.90;;;;;;5072645;28;20020;-54
2021/03/12 08:38:23;;;;;;;4.38;2.70;;;8.00;99.90;;;;;;5072021;28;20120;-50
2021/03/12 08:41:14;;;;;;;4.75;2.70;;;8.30;99.90;;;;;;5072087;28;20077;-53
2021/03/12 08:43:51;;;;;;;5.60;3.00;;;8.60;99.90;;;;;;5072669;28;20017;-54
2021/03/12 08:46:26;;;;;;;3.72;2.42;;;8.80;99.90;;;;;;5072439;28;20024;-52
2021/03/12 08:48:54;;;;;;;3.13;2.53;;;9.10;99.90;;;;;;5072483;28;20091;-50
2021/03/12 08:51:25;;;;;;;3.85;2.40;;;9.50;99.90;;;;;;5072516;28;20278;-51
2021/03/12 08:53:52;;;;;;;3.88;2.35;;;10.80;97.90;;;;;;5072294;28;20051;-52
2021/03/12 08:56:24;;;;;;;4.93;2.67;;;11.10;96.50;;;;;;5086325;28;20367;-52
2021/03/12 08:58:49;;;;;;;4.78;2.72;;;10.80;96.20;;;;;;5092462;28;20031;-53
2021/03/12 09:01:21;;;;;;;4.95;2.38;;;10.50;95.70;;;;;;5092565;28;20031;-50
2021/03/12 09:04:05;;;;;;;4.18;2.30;;;10.20;96.20;;;;;;5092904;28;20390;-52
2021/03/12 09:06:35;;;;;;;3.85;2.78;;;9.90;96.50;;;;;;5092498;28;20024;-56
2021/03/12 09:09:01;;;;;;;7.45;3.13;;;9.70;95.80;;;;;;5086129;28;20383;-52
2021/03/12 09:11:27;;;;;;;4.25;2.50;;;9.50;96.80;;;;;;5071103;28;20021;-52
2021/03/12 09:13:57;;;;;;;4.88;2.38;;;9.30;96.30;;;;;;5072188;28;20025;-51
2021/03/12 09:16:28;;;;;;;3.70;2.40;;;9.10;96.00;;;;;;5072429;28;20024;-49
2021/03/12 09:18:56;;;;;;;7.80;2.40;;;8.90;96.40;;;;;;5071930;28;20043;-50
2021/03/12 09:21:23;;;;;;;5.03;2.80;;;8.80;95.40;;;;;;5072253;28;20052;-51
2021/03/12 09:23:54;;;;;;;4.68;2.72;;;8.70;95.40;;;;;;5075195;28;20382;-52
2021/03/12 09:26:23;;;;;;;3.58;2.42;;;8.60;96.30;;;;;;5074939;28;20035;-51
2021/03/12 09:28:52;;;;;;;8.45;2.47;;;8.70;96.70;;;;;;5076085;28;20111;-53
2021/03/12 09:31:19;;;;;;;3.72;2.20;;;8.80;96.00;;;;;;5076314;28;20028;-54
2021/03/12 09:33:46;;;;;;;4.88;2.55;;;9.00;95.70;;;;;;5076171;28;20068;-49
2021/03/12 09:36:33;;;;;;;3.38;2.53;;;9.10;95.60;;;;;;5073600;28;20617;-50
2021/03/12 09:39:12;;;;;;;4.00;2.78;;;9.60;94.40;;;;;;5075928;28;20472;-50
2021/03/12 09:42:11;;;;;;;3.92;2.03;;;10.40;92.90;;;;;;5074361;28;20021;-50
2021/03/12 09:44:38;;;;;;;4.00;2.45;;;11.50;92.30;;;;;;5067055;28;20029;-53
2021/03/12 09:47:09;;;;;;;3.25;2.00;;;11.60;90.80;;;;;;5075424;28;20472;-51
2021/03/12 09:49:42;;;;;;;4.40;2.22;;;11.50;88.20;;;;;;5075926;28;20121;-51
2021/03/12 09:52:09;;;;;;;4.82;2.88;;;11.30;90.00;;;;;;5075415;28;20024;-55
2021/03/12 09:54:36;;;;;;;4.32;2.25;;;11.00;90.10;;;;;;5075625;28;20139;-51
2021/03/12 09:57:02;;;;;;;6.05;2.58;;;11.10;90.40;;;;;;5074420;28;20380;-50
2021/03/12 09:59:30;;;;;;;6.03;2.83;;;11.10;89.70;;;;;;5075453;28;20104;-52
2021/03/12 10:02:08;;;;;;;3.22;2.45;;;11.20;87.80;;;;;;5075463;28;20025;-51
2021/03/12 10:04:39;;;;;;;9.20;2.92;;;11.70;86.30;;;;;;5075594;28;20031;-53
2021/03/12 10:07:05;;;;;;;5.30;2.75;;;12.60;81.30;;;;;;5074934;28;20066;-52
2021/03/12 10:09:32;;;;;;;5.53;2.40;;;12.80;80.30;;;;;;5075562;28;20027;-50
2021/03/12 10:11:59;;;;;;;7.63;2.67;;;13.00;80.00;;;;;;5074465;28;20371;-47
2021/03/12 10:14:39;;;;;;;5.38;2.70;;;13.60;77.00;;;;;;5075384;28;20025;-51
2021/03/12 10:17:17;;;;;;;4.05;2.17;;;13.70;73.80;;;;;;5075291;28;20498;-49
2021/03/12 10:19:47;;;;;;;3.30;2.28;;;14.10;74.10;;;;;;5075423;28;20383;-50
2021/03/12 10:22:21;;;;;;;7.35;3.22;;;13.70;74.20;;;;;;5075232;28;20021;-48
2021/03/12 10:24:54;;;;;;;6.60;2.40;;;13.20;73.70;;;;;;5075308;28;20036;-49
2021/03/12 10:27:22;;;;;;;6.28;2.10;;;12.80;75.10;;;;;;5073893;28;20029;-48
2021/03/12 10:29:48;;;;;;;5.07;2.45;;;12.40;76.00;;;;;;5075011;28;20089;-50
2021/03/12 10:32:14;;;;;;;6.30;2.65;;;12.20;74.50;;;;;;5075139;28;20036;-54
2021/03/12 10:34:43;;;;;;;3.60;2.08;;;11.90;76.20;;;;;;5074468;28;20126;-53
2021/03/12 10:37:13;;;;;;;5.10;2.35;;;11.70;76.60;;;;;;5075061;28;20452;-51
2021/03/12 10:39:43;;;;;;;3.88;1.85;;;11.60;76.20;;;;;;5074852;28;20025;-50
2021/03/12 10:42:10;;;;;;;3.30;2.00;;;11.60;76.60;;;;;;5073554;28;20032;-52
2021/03/12 10:45:09;;;;;;;3.95;2.33;;;11.40;74.50;;;;;;5074678;28;20025;-50
2021/03/12 10:47:35;;;;;;;5.35;1.95;;;11.10;74.00;;;;;;5041435;28;20502;-50
2021/03/12 10:50:18;;;;;;;4.38;1.92;;;10.90;76.00;;;;;;5074837;28;20032;-52
2021/03/12 10:52:44;;;;;;;4.15;1.92;;;10.70;75.00;;;;;;5054549;28;20033;-49
2021/03/12 10:55:10;;;;;;;1.75;1.40;;;10.50;77.30;;;;;;5066052;28;20553;-51
2021/03/12 10:57:41;;;;;;;4.15;1.80;;;10.50;77.60;;;;;;5093642;28;20386;-49
2021/03/12 11:00:15;;;;;;;7.00;1.80;;;10.70;77.30;;;;;;5094693;28;20020;-50
2021/03/12 11:02:42;;;;;;;2.50;1.63;;;11.00;76.30;;;;;;5095101;28;20153;-55
2021/03/12 11:05:09;;;;;;;5.85;1.83;;;11.30;75.70;;;;;;5094576;28;20371;-53
2021/03/12 11:07:34;;;;;;;2.17;1.50;;;11.50;74.10;;;;;;5094780;28;20024;-52
2021/03/12 11:10:00;;;;;;;4.05;1.90;;;11.60;74.30;;;;;;5060119;28;20033;-49
2021/03/12 11:12:34;;;;;;;3.22;1.35;;;11.90;73.60;;;;;;5053113;28;20025;-48
2021/03/12 11:15:02;;;;;;;4.20;1.92;;;12.10;72.10;;;;;;5054086;28;20051;-53
2021/03/12 11:17:28;;;;;;;7.15;2.80;;;12.20;70.90;;;;;;5054334;28;20029;-49
2021/03/12 11:19:53;;;;;;;2.35;1.40;;;12.20;68.30;;;;;;5053955;28;20029;-51
2021/03/12 11:22:19;;;;;;;4.82;2.00;;;12.10;69.80;;;;;;5053835;28;20132;-53
2021/03/12 11:24:46;;;;;;;4.18;1.98;;;12.10;68.50;;;;;;5053963;28;20082;-54
2021/03/12 11:27:11;;;;;;;6.35;2.13;;;12.20;67.90;;;;;;5052868;28;20029;-52
2021/03/12 11:29:37;;;;;;;4.88;1.60;;;12.10;67.10;;;;;;5053867;28;20476;-49
2021/03/12 11:32:03;;;;;;;3.10;1.45;;;12.10;67.30;;;;;;5053938;28;20096;-55
2021/03/12 11:34:28;;;;;;;5.20;2.17;;;12.00;68.10;;;;;;5053797;28;20469;-52
2021/03/12 11:36:54;;;;;;;3.42;1.73;;;12.10;67.80;;;;;;5053950;28;20108;-53
2021/03/12 11:39:20;;;;;;;3.70;1.58;;;12.10;68.00;;;;;;5053799;28;20028;-54
2021/03/12 11:41:45;;;;;;;4.72;1.48;;;12.20;68.50;;;;;;5052422;28;20029;-51
2021/03/12 11:44:11;;;;;;;9.82;2.60;;;12.30;67.90;;;;;;5053596;28;20021;-51
2021/03/12 11:46:36;;;;;;;5.75;1.85;;;12.20;67.30;;;;;;5052541;28;20113;-53
2021/03/12 11:49:02;;;;;;;4.43;1.95;;;12.20;66.60;;;;;;5053411;28;20060;-51
2021/03/12 11:51:27;;;;;;;5.03;1.70;;;12.10;67.10;;;;;;5064949;28;20029;-51
2021/03/12 11:53:53;;;;;;;3.33;1.40;;;12.00;67.40;;;;;;5073354;28;20043;-49
2021/03/12 11:56:18;;;;;;;3.25;1.80;;;12.00;67.50;;;;;;5072175;28;20032;-54
2021/03/12 11:58:44;;;;;;;7.22;2.35;;;12.00;66.60;;;;;;5073451;28;20036;-54
2021/03/12 12:01:09;;;;;;;4.35;1.83;;;12.00;65.90;;;;;;5072918;28;20057;-52
2021/03/12 12:03:35;;;;;;;6.22;1.77;;;12.00;66.50;;;;;;5073257;28;20033;-53
2021/03/12 12:06:00;;;;;;;3.25;1.60;;;11.90;66.30;;;;;;5073475;28;20384;-51
2021/03/12 12:08:26;;;;;;;5.20;1.63;;;11.80;66.00;;;;;;5073423;28;20031;-51
2021/03/12 12:10:51;;;;;;;4.70;2.20;;;11.70;65.90;;;;;;5073037;28;20028;-49
2021/03/12 12:13:17;;;;;;;3.38;1.90;;;11.50;66.10;;;;;;5072597;28;20029;-54
2021/03/12 12:15:42;;;;;;;3.95;1.88;;;11.50;66.30;;;;;;5073004;28;20032;-50
2021/03/12 12:18:10;;;;;;;4.53;1.90;;;11.50;66.20;;;;;;5073167;28;20024;-49
2021/03/12 12:20:42;;;;;;;6.82;2.72;;;11.60;65.60;;;;;;5072874;28;20094;-51
2021/03/12 12:23:08;;;;;;;2.88;1.73;;;11.50;65.40;;;;;;5072926;28;20379;-53
2021/03/12 12:25:33;;;;;;;3.58;2.13;;;11.40;66.40;;;;;;5073066;28;20025;-53
2021/03/12 12:27:59;;;;;;;3.25;1.30;;;11.20;65.70;;;;;;5072173;28;20033;-49
2021/03/12 12:30:24;;;;;;;4.63;2.20;;;11.10;66.70;;;;;;5072901;28;20028;-53
2021/03/12 12:32:50;;;;;;;4.80;2.08;;;11.10;66.20;;;;;;5072840;28;20419;-51
2021/03/12 12:35:16;;;;;;;2.38;1.77;;;11.10;66.40;;;;;;5072762;28;20085;-53
2021/03/12 12:37:41;;;;;;;5.28;2.33;;;11.20;66.20;;;;;;5072886;28;20035;-55
2021/03/12 12:40:08;;;;;;;5.80;2.20;;;11.20;65.20;;;;;;5072611;28;20116;-49
2021/03/12 12:42:34;;;;;;;6.22;2.42;;;11.10;65.10;;;;;;5071900;28;20020;-51
2021/03/12 12:45:00;;;;;;;2.70;1.90;;;11.10;65.50;;;;;;5072723;28;20036;-48
2021/03/12 12:47:26;;;;;;;3.60;1.88;;;11.30;65.20;;;;;;5072505;28;20134;-50
2021/03/12 12:49:51;;;;;;;5.65;1.75;;;11.20;64.30;;;;;;5072696;28;20078;-54
2021/03/12 12:52:17;;;;;;;4.53;1.60;;;11.30;64.70;;;;;;5072657;28;20028;-52
2021/03/12 12:54:42;;;;;;;2.50;1.50;;;11.30;64.80;;;;;;5072386;28;20045;-49
2021/03/12 12:57:08;;;;;;;7.28;2.30;;;11.20;65.00;;;;;;5070143;28;20028;-52
2021/03/12 12:59:34;;;;;;;5.10;2.10;;;11.30;65.00;;;;;;5072534;28;20024;-47
2021/03/12 13:01:59;;;;;;;3.83;1.88;;;11.30;65.50;;;;;;5072332;28;20016;-51
2021/03/12 13:04:25;;;;;;;3.83;1.90;;;11.40;64.40;;;;;;5072456;28;20033;-49